createdAt,value
2019-04-14T00:01:53.026Z,12.00
2019-04-14T00:04:29.277Z,9.93
2019-04-14T00:07:03.695Z,9.30
2019-04-14T00:09:38.038Z,10.50
2019-04-14T00:12:11.956Z,12.03
2019-04-14T00:14:44.604Z,9.03
2019-04-14T00:17:15.787Z,12.23
2019-04-14T00:19:50.197Z,10.73
2019-04-14T00:22:22.747Z,10.50
2019-04-14T00:24:53.811Z,9.77
2019-04-14T00:27:25.890Z,11.60
2019-04-14T00:29:57.136Z,10.90
2019-04-14T00:32:29.260Z,10.40
2019-04-14T00:35:16.749Z,12.00
2019-04-14T00:38:06.322Z,9.93
2019-04-14T00:40:43.252Z,12.00
2019-04-14T00:43:33.495Z,11.50
2019-04-14T00:46:15.385Z,11.83
2019-04-14T00:48:47.659Z,12.93
2019-04-14T00:51:19.946Z,11.53
2019-04-14T00:53:51.364Z,10.33
2019-04-14T00:56:23.460Z,13.43
2019-04-14T00:58:56.106Z,11.50
2019-04-14T01:01:28.618Z,10.40
2019-04-14T01:03:59.742Z,11.67
2019-04-14T01:06:31.461Z,12.37
2019-04-14T01:09:04.276Z,12.13
2019-04-14T01:11:36.284Z,13.67
2019-04-14T01:14:08.012Z,16.53
2019-04-14T01:16:39.134Z,14.00
2019-04-14T01:19:11.216Z,11.83
2019-04-14T01:21:43.654Z,14.40
2019-04-14T01:24:16.488Z,12.43
2019-04-14T01:26:48.668Z,16.57
2019-04-14T01:29:20.854Z,15.67
2019-04-14T01:31:52.039Z,13.50
2019-04-14T01:34:23.870Z,15.40
2019-04-14T01:36:56.061Z,12.87
2019-04-14T01:39:28.537Z,15.50
2019-04-14T01:42:00.720Z,15.17
2019-04-14T01:44:33.017Z,13.53
2019-04-14T01:47:05.315Z,13.97
2019-04-14T01:49:37.552Z,15.23
2019-04-14T01:52:43.659Z,15.23
2019-04-14T01:55:22.282Z,14.50
2019-04-14T01:58:12.133Z,14.03
2019-04-14T02:00:51.168Z,15.00
2019-04-14T02:03:23.850Z,15.03
2019-04-14T02:05:55.999Z,15.70
2019-04-14T02:08:28.399Z,15.17
2019-04-14T02:11:00.792Z,16.33
2019-04-14T02:13:33.208Z,13.80
2019-04-14T02:16:15.115Z,14.53
2019-04-14T02:18:38.586Z,15.60
2019-04-14T02:21:10.719Z,15.23
2019-04-14T02:23:43.338Z,16.33
2019-04-14T02:26:15.506Z,16.37
2019-04-14T02:28:46.763Z,14.70
2019-04-14T02:31:38.843Z,15.80
2019-04-14T02:34:25.605Z,17.37
2019-04-14T02:39:29.418Z,15.53
2019-04-14T02:42:17.402Z,17.70
2019-04-14T02:44:32.472Z,19.87
2019-04-14T02:47:03.466Z,16.67
2019-04-14T02:49:36.331Z,17.37
2019-04-14T02:52:09.972Z,19.40
2019-04-14T02:54:51.912Z,15.60
2019-04-14T02:57:16.928Z,17.97
2019-04-14T02:59:51.529Z,19.10
2019-04-14T03:04:50.843Z,19.43
2019-04-14T03:10:10.545Z,17.10
2019-04-14T03:12:31.628Z,16.60
2019-04-14T03:15:07.237Z,19.77
2019-04-14T03:18:00.493Z,18.50
2019-04-14T03:20:42.886Z,19.67
2019-04-14T03:23:34.760Z,21.67
2019-04-14T03:26:05.082Z,18.53
2019-04-14T03:28:46.037Z,19.77
2019-04-14T03:31:51.938Z,20.63
2019-04-14T03:37:21.195Z,17.37
2019-04-14T03:39:09.690Z,19.47
2019-04-14T03:41:37.248Z,18.83
2019-04-14T03:44:11.895Z,17.90
2019-04-14T03:46:45.080Z,19.33
2019-04-14T03:49:17.782Z,20.70
2019-04-14T03:51:57.372Z,21.60
2019-04-14T03:54:10.967Z,21.60
2019-04-14T03:56:48.752Z,19.67
2019-04-14T03:59:22.017Z,22.27
2019-04-14T04:01:54.275Z,20.03
2019-04-14T04:04:25.557Z,19.20
2019-04-14T04:06:57.474Z,23.00
2019-04-14T04:09:34.245Z,23.00
2019-04-14T04:12:05.637Z,22.90
2019-04-14T04:14:37.789Z,23.13
2019-04-14T04:17:31.805Z,20.77
2019-04-14T04:20:20.354Z,22.20
2019-04-14T04:23:16.676Z,22.67
2019-04-14T04:26:19.167Z,24.20
2019-04-14T04:28:58.361Z,22.93
2019-04-14T04:31:50.440Z,23.33
2019-04-14T04:34:40.568Z,24.73
2019-04-14T04:37:34.418Z,25.17
2019-04-14T04:40:27.414Z,23.87
2019-04-14T04:42:59.075Z,24.27
2019-04-14T04:45:30.270Z,26.13
2019-04-14T04:48:02.422Z,23.13
2019-04-14T04:50:34.629Z,25.63
2019-04-14T04:53:06.928Z,26.40
2019-04-14T04:55:39.504Z,27.47
2019-04-14T04:58:12.080Z,28.70
2019-04-14T05:00:43.894Z,30.00
2019-04-14T05:03:16.833Z,28.20
2019-04-14T05:06:43.724Z,28.73
2019-04-14T05:09:25.318Z,28.57
2019-04-14T05:12:17.653Z,30.27
2019-04-14T05:14:54.478Z,27.43
2019-04-14T05:17:26.279Z,30.27
2019-04-14T05:19:58.302Z,28.03
2019-04-14T05:22:31.268Z,29.37
2019-04-14T05:25:03.524Z,32.27
2019-04-14T05:27:36.544Z,29.20
2019-04-14T05:30:08.990Z,30.83
2019-04-14T05:32:41.173Z,31.57
2019-04-14T05:35:12.479Z,32.50
2019-04-14T05:37:44.383Z,32.67
2019-04-14T05:40:16.671Z,31.30
2019-04-14T05:42:48.104Z,31.30
2019-04-14T05:45:19.864Z,33.10
2019-04-14T05:47:52.158Z,34.43
2019-04-14T05:50:23.363Z,32.60
2019-04-14T05:52:55.660Z,33.70
2019-04-14T05:55:28.342Z,35.07
2019-04-14T05:57:59.976Z,37.47
2019-04-14T06:00:31.990Z,30.97
2019-04-14T06:03:03.820Z,37.00
2019-04-14T06:05:36.153Z,31.43
2019-04-14T06:08:07.670Z,34.60
2019-04-14T06:10:38.808Z,36.57
2019-04-14T06:13:11.767Z,35.90
2019-04-14T06:15:42.970Z,39.87
2019-04-14T06:18:14.012Z,37.97
2019-04-14T06:20:45.140Z,39.03
2019-04-14T06:23:16.253Z,40.87
2019-04-14T06:25:47.714Z,36.97
2019-04-14T06:28:18.751Z,39.33
2019-04-14T06:31:18.392Z,40.90
2019-04-14T06:33:54.386Z,37.63
2019-04-14T06:36:47.526Z,42.97
2019-04-14T06:39:36.872Z,41.03
2019-04-14T06:42:07.983Z,41.80
2019-04-14T06:44:39.474Z,46.10
2019-04-14T06:47:11.008Z,43.17
2019-04-14T06:49:48.975Z,46.93
2019-04-14T06:52:14.803Z,46.27
2019-04-14T06:54:46.298Z,49.87
2019-04-14T06:57:17.333Z,51.10
2019-04-14T06:59:48.451Z,52.20
2019-04-14T07:02:19.915Z,53.43
2019-04-14T07:04:51.674Z,52.93
2019-04-14T07:07:22.721Z,53.23
2019-04-14T07:09:53.861Z,52.47
2019-04-14T07:12:25.585Z,49.63
2019-04-14T07:14:57.036Z,53.97
2019-04-14T07:17:28.409Z,53.00
2019-04-14T07:20:02.342Z,49.03
2019-04-14T07:22:34.579Z,53.73
2019-04-14T07:25:05.679Z,51.23
2019-04-14T07:27:37.081Z,49.67
2019-04-14T07:30:33.074Z,48.20
2019-04-14T07:33:21.823Z,50.47
2019-04-14T07:36:08.131Z,46.87
2019-04-14T07:38:51.999Z,48.57
2019-04-14T07:41:39.321Z,45.77
2019-04-14T07:44:35.444Z,49.70
2019-04-14T07:47:16.865Z,47.23
2019-04-14T07:50:15.614Z,48.10
2019-04-14T07:53:12.355Z,51.13
2019-04-14T07:56:00.700Z,51.20
2019-04-14T07:58:42.935Z,51.80
2019-04-14T08:01:17.023Z,50.70
2019-04-14T08:04:01.640Z,51.07
2019-04-14T08:06:44.946Z,54.70
2019-04-14T08:09:16.426Z,55.30
2019-04-14T08:11:47.938Z,51.93
2019-04-14T08:14:19.082Z,57.53
2019-04-14T08:16:50.142Z,55.83
2019-04-14T08:19:22.109Z,53.67
2019-04-14T08:21:53.160Z,56.67
2019-04-14T08:24:25.715Z,56.63
2019-04-14T08:26:56.784Z,51.50
2019-04-14T08:29:28.170Z,54.90
2019-04-14T08:31:59.181Z,54.03
2019-04-14T08:34:30.470Z,55.43
2019-04-14T08:37:01.551Z,52.63
2019-04-14T08:39:32.577Z,50.63
2019-04-14T08:42:19.190Z,49.00
2019-04-14T08:44:52.297Z,50.17
2019-04-14T08:47:41.364Z,53.27
2019-04-14T08:50:39.641Z,52.73
2019-04-14T08:53:26.082Z,53.77
2019-04-14T08:56:17.695Z,56.67
2019-04-14T08:58:57.886Z,51.03
2019-04-14T09:01:37.851Z,53.53
2019-04-14T09:04:17.809Z,56.47
2019-04-14T09:07:06.635Z,56.57
2019-04-14T09:09:43.277Z,54.93
2019-04-14T09:12:16.941Z,54.37
2019-04-14T09:14:56.828Z,56.80
2019-04-14T09:17:20.798Z,56.23
2019-04-14T09:19:51.854Z,60.50
2019-04-14T09:22:23.333Z,53.60
2019-04-14T09:24:54.497Z,55.37
2019-04-14T09:27:25.610Z,58.03
2019-04-14T09:29:56.693Z,58.90
2019-04-14T09:32:29.638Z,58.37
2019-04-14T09:35:00.700Z,60.70
2019-04-14T09:37:31.797Z,58.80
2019-04-14T09:40:04.399Z,55.67
2019-04-14T09:42:35.469Z,56.30
2019-04-14T09:45:07.396Z,60.97
2019-04-14T09:47:38.784Z,55.37
2019-04-14T09:50:09.734Z,60.40
2019-04-14T09:52:40.745Z,61.80
2019-04-14T09:55:12.170Z,61.73
2019-04-14T09:57:43.231Z,62.13
2019-04-14T10:00:15.833Z,62.97
2019-04-14T10:02:46.987Z,67.53
2019-04-14T10:05:18.069Z,60.03
2019-04-14T10:07:49.460Z,63.97
2019-04-14T10:10:20.522Z,60.17
2019-04-14T10:12:51.607Z,60.87
2019-04-14T10:15:22.708Z,55.07
2019-04-14T10:17:53.773Z,56.90
2019-04-14T10:20:24.915Z,55.63
2019-04-14T10:22:55.977Z,53.90
2019-04-14T10:25:27.132Z,54.90
2019-04-14T10:27:58.618Z,53.77
2019-04-14T10:30:29.592Z,53.73
2019-04-14T10:33:00.718Z,56.73
2019-04-14T10:35:32.212Z,56.67
2019-04-14T10:38:03.343Z,54.10
2019-04-14T10:40:34.874Z,56.63
2019-04-14T10:43:05.965Z,54.63
2019-04-14T10:45:37.046Z,54.43
2019-04-14T10:48:08.474Z,53.23
2019-04-14T10:50:39.836Z,55.67
2019-04-14T10:53:11.284Z,52.87
2019-04-14T10:55:42.387Z,52.27
2019-04-14T10:58:13.878Z,51.63
2019-04-14T11:00:45.150Z,50.97
2019-04-14T11:03:16.280Z,51.97
2019-04-14T11:05:59.434Z,49.93
2019-04-14T11:08:30.435Z,53.07
2019-04-14T11:11:01.494Z,50.77
2019-04-14T11:13:33.065Z,49.03
2019-04-14T11:16:04.921Z,48.83
2019-04-14T11:18:36.028Z,55.73
2019-04-14T11:21:08.204Z,48.03
2019-04-14T11:23:39.281Z,53.60
2019-04-14T11:26:10.622Z,52.57
2019-04-14T11:28:41.958Z,57.57
2019-04-14T11:31:14.812Z,54.03
2019-04-14T11:34:01.605Z,53.60
2019-04-14T11:36:54.686Z,54.53
2019-04-14T11:39:26.103Z,52.40
2019-04-14T11:41:57.230Z,50.37
2019-04-14T11:44:28.640Z,52.93
2019-04-14T11:46:59.949Z,46.03
2019-04-14T11:49:31.049Z,47.87
2019-04-14T11:52:02.121Z,52.80
2019-04-14T11:54:33.185Z,49.77
2019-04-14T11:57:04.329Z,47.00
2019-04-14T11:59:52.663Z,43.20
2019-04-14T12:02:45.714Z,48.40
2019-04-14T12:05:25.352Z,46.67
2019-04-14T12:08:11.058Z,45.47
2019-04-14T12:10:42.447Z,44.10
2019-04-14T12:13:13.562Z,47.77
2019-04-14T12:15:44.711Z,48.23
2019-04-14T12:18:15.850Z,43.37
2019-04-14T12:20:47.008Z,45.43
2019-04-14T12:23:18.541Z,44.27
2019-04-14T12:25:50.319Z,41.50
2019-04-14T12:28:21.927Z,42.07
2019-04-14T12:30:53.310Z,39.73
2019-04-14T12:33:24.663Z,39.03
2019-04-14T12:35:56.028Z,39.17
2019-04-14T12:38:27.153Z,36.03
2019-04-14T12:41:00.428Z,39.63
2019-04-14T12:43:38.413Z,41.67
2019-04-14T12:46:28.844Z,38.53
2019-04-14T12:49:05.057Z,37.03
2019-04-14T12:51:39.028Z,38.70
2019-04-14T12:54:10.176Z,40.63
2019-04-14T12:56:43.431Z,38.80
2019-04-14T12:59:19.209Z,37.10
2019-04-14T13:02:10.887Z,39.37
2019-04-14T13:04:42.256Z,40.30
2019-04-14T13:07:13.302Z,35.60
2019-04-14T13:09:45.062Z,37.87
2019-04-14T13:12:16.134Z,36.47
2019-04-14T13:14:47.252Z,37.27
2019-04-14T13:17:18.296Z,36.83
2019-04-14T13:19:49.686Z,38.00
2019-04-14T13:22:32.947Z,33.40
2019-04-14T13:24:54.254Z,34.50
2019-04-14T13:27:25.413Z,32.67
2019-04-14T13:29:56.523Z,34.80
2019-04-14T13:32:35.730Z,33.57
2019-04-14T13:35:00.281Z,32.37
2019-04-14T13:37:31.680Z,33.17
2019-04-14T13:40:02.680Z,31.07
2019-04-14T13:42:33.900Z,33.07
2019-04-14T13:45:05.424Z,34.30
2019-04-14T13:47:36.488Z,33.47
2019-04-14T13:50:08.162Z,30.07
2019-04-14T13:52:46.644Z,32.33
2019-04-14T13:55:13.612Z,31.57
2019-04-14T13:57:44.754Z,31.57
2019-04-14T14:00:17.937Z,28.07
2019-04-14T14:02:48.949Z,28.63
2019-04-14T14:05:20.689Z,28.67
2019-04-14T14:07:51.809Z,29.37
2019-04-14T14:10:22.865Z,31.17
2019-04-14T14:12:58.447Z,29.20
2019-04-14T14:15:48.547Z,29.03
2019-04-14T14:18:30.389Z,28.17
2019-04-14T14:21:23.435Z,24.43
2019-04-14T14:24:19.694Z,25.17
2019-04-14T14:26:51.529Z,25.40
2019-04-14T14:29:22.962Z,26.37
2019-04-14T14:31:54.665Z,25.20
2019-04-14T14:34:25.795Z,25.33
2019-04-14T14:36:56.771Z,24.23
2019-04-14T14:39:28.562Z,22.40
2019-04-14T14:41:59.674Z,24.33
2019-04-14T14:44:38.339Z,24.03
2019-04-14T14:47:18.018Z,22.07
2019-04-14T14:50:08.445Z,23.00
2019-04-14T14:52:40.933Z,21.93
2019-04-14T14:55:12.477Z,25.80
2019-04-14T14:57:43.631Z,25.40
2019-04-14T15:00:26.931Z,25.47
2019-04-14T15:02:57.999Z,21.33
2019-04-14T15:05:29.485Z,21.87
2019-04-14T15:08:00.902Z,25.23
2019-04-14T15:10:31.942Z,24.80
2019-04-14T15:13:03.360Z,24.20
2019-04-14T15:15:34.839Z,22.57
2019-04-14T15:18:06.437Z,24.83
2019-04-14T15:20:37.888Z,21.23
2019-04-14T15:23:09.026Z,21.20
2019-04-14T15:25:40.483Z,21.07
2019-04-14T15:28:11.543Z,22.53
2019-04-14T15:30:42.686Z,20.30
2019-04-14T15:33:13.804Z,22.03
2019-04-14T15:35:44.942Z,20.77
2019-04-14T15:38:16.437Z,20.40
2019-04-14T15:40:47.591Z,21.73
2019-04-14T15:43:18.978Z,22.90
2019-04-14T15:45:50.483Z,20.73
2019-04-14T15:48:21.545Z,21.67
2019-04-14T15:50:52.689Z,21.47
2019-04-14T15:53:23.760Z,21.60
2019-04-14T15:55:54.916Z,21.03
2019-04-14T15:58:47.896Z,19.47
2019-04-14T16:01:34.709Z,19.40
2019-04-14T16:04:11.938Z,17.83
2019-04-14T16:07:05.925Z,23.53
2019-04-14T16:10:02.093Z,26.60
2019-04-14T16:12:47.990Z,19.70
2019-04-14T16:15:57.357Z,19.73
2019-04-14T16:18:39.924Z,20.83
2019-04-14T16:21:11.051Z,24.00
2019-04-14T16:23:50.422Z,18.93
2019-04-14T16:26:34.535Z,18.37
2019-04-14T16:29:20.983Z,20.60
2019-04-14T16:32:07.181Z,19.93
2019-04-14T16:34:43.487Z,17.37
2019-04-14T16:37:14.665Z,18.37
2019-04-14T16:39:46.208Z,17.33
2019-04-14T16:42:17.699Z,15.27
2019-04-14T16:44:48.755Z,17.03
2019-04-14T16:47:20.286Z,15.57
2019-04-14T16:49:51.385Z,16.00
2019-04-14T16:52:47.253Z,17.67
2019-04-14T16:55:43.491Z,15.97
2019-04-14T16:58:26.583Z,16.40
2019-04-14T17:01:03.763Z,16.83
2019-04-14T17:03:35.204Z,16.43
2019-04-14T17:06:06.706Z,17.57
2019-04-14T17:08:37.782Z,15.17
2019-04-14T17:11:08.887Z,17.97
2019-04-14T17:13:42.684Z,16.33
2019-04-14T17:16:24.006Z,18.43
2019-04-14T17:19:17.208Z,18.43
2019-04-14T17:22:00.015Z,16.47
2019-04-14T17:25:01.121Z,17.20
2019-04-14T17:27:55.814Z,15.30
2019-04-14T17:30:31.481Z,15.40
2019-04-14T17:33:25.368Z,18.50
2019-04-14T17:36:05.642Z,15.00
2019-04-14T17:39:07.260Z,18.67
2019-04-14T17:42:05.236Z,17.03
2019-04-14T17:44:43.674Z,18.30
2019-04-14T17:47:34.627Z,16.43
2019-04-14T17:50:40.524Z,16.93
2019-04-14T17:53:19.956Z,15.63
2019-04-14T17:55:59.708Z,18.83
2019-04-14T17:58:39.062Z,17.03
2019-04-14T18:01:38.178Z,18.77
2019-04-14T18:04:26.107Z,17.63
2019-04-14T18:07:04.711Z,18.00
2019-04-14T18:09:48.433Z,16.33
2019-04-14T18:12:29.573Z,17.90
2019-04-14T18:15:11.719Z,17.07
2019-04-14T18:18:09.170Z,15.63
2019-04-14T18:20:43.174Z,17.57
2019-04-14T18:23:14.222Z,21.73
2019-04-14T18:25:46.012Z,21.40
2019-04-14T18:28:35.106Z,16.30
2019-04-14T18:31:35.535Z,17.23
2019-04-14T18:34:43.921Z,16.03
2019-04-14T18:37:32.986Z,15.63
2019-04-14T18:40:27.353Z,17.07
2019-04-14T18:43:03.389Z,17.27
2019-04-14T18:45:48.977Z,21.07
2019-04-14T18:48:39.459Z,17.90
2019-04-14T18:51:41.873Z,20.27
2019-04-14T18:54:23.430Z,19.47
2019-04-14T18:56:59.482Z,17.63
2019-04-14T18:59:50.903Z,15.03
2019-04-14T19:02:22.387Z,19.17
2019-04-14T19:04:53.494Z,16.07
2019-04-14T19:07:24.912Z,17.87
2019-04-14T19:09:56.335Z,21.07
2019-04-14T19:12:37.114Z,17.20
2019-04-14T19:15:27.893Z,16.47
2019-04-14T19:18:07.538Z,18.63
2019-04-14T19:20:40.899Z,16.97
2019-04-14T19:23:12.005Z,18.07
2019-04-14T19:25:43.528Z,16.03
2019-04-14T19:28:15.303Z,17.60
2019-04-14T19:30:46.651Z,18.13
2019-04-14T19:33:18.903Z,16.40
2019-04-14T19:35:49.971Z,16.43
2019-04-14T19:38:21.005Z,17.40
2019-04-14T19:40:51.983Z,15.90
2019-04-14T19:43:24.139Z,16.77
2019-04-14T19:45:56.621Z,16.53
2019-04-14T19:48:29.470Z,15.93
2019-04-14T19:51:00.508Z,17.17
2019-04-14T19:53:31.666Z,18.60
2019-04-14T19:56:03.115Z,15.93
2019-04-14T19:58:34.218Z,19.17
2019-04-14T20:01:07.168Z,16.60
2019-04-14T20:03:38.882Z,16.70
2019-04-14T20:06:10.044Z,17.93
2019-04-14T20:08:41.130Z,16.60
2019-04-14T20:11:12.578Z,19.00
2019-04-14T20:13:47.396Z,17.57
2019-04-14T20:16:43.466Z,17.30
2019-04-14T20:19:33.429Z,17.00
2019-04-14T20:22:14.136Z,19.57
2019-04-14T20:25:07.582Z,20.10
2019-04-14T20:27:46.952Z,18.67
2019-04-14T20:30:52.243Z,19.00
2019-04-14T20:33:23.763Z,17.53
2019-04-14T20:35:54.744Z,21.43
2019-04-14T20:38:26.280Z,19.70
2019-04-14T20:40:57.443Z,20.97
2019-04-14T20:43:28.432Z,19.27
2019-04-14T20:45:59.913Z,19.07
2019-04-14T20:48:31.004Z,21.90
2019-04-14T20:51:02.031Z,22.13
2019-04-14T20:53:33.001Z,19.60
2019-04-14T20:56:04.078Z,21.57
2019-04-14T20:58:35.170Z,21.63
2019-04-14T21:01:07.809Z,20.17
2019-04-14T21:03:57.077Z,18.57
2019-04-14T21:06:38.839Z,20.83
2019-04-14T21:09:41.701Z,20.27
2019-04-14T21:12:21.718Z,18.53
2019-04-14T21:15:09.363Z,20.73
2019-04-14T21:17:59.179Z,21.90
2019-04-14T21:20:51.959Z,20.87
2019-04-14T21:23:32.062Z,18.87
2019-04-14T21:26:17.361Z,20.83
2019-04-14T21:28:53.261Z,22.47
2019-04-14T21:31:33.808Z,22.57
2019-04-14T21:34:32.918Z,22.93
2019-04-14T21:37:29.343Z,26.63
2019-04-14T21:40:19.427Z,22.67
2019-04-14T21:42:50.916Z,20.63
2019-04-14T21:45:22.091Z,20.17
2019-04-14T21:47:53.582Z,23.00
2019-04-14T21:50:24.727Z,20.27
2019-04-14T21:52:55.829Z,19.10
2019-04-14T21:55:26.974Z,19.67
2019-04-14T21:58:13.607Z,19.37
2019-04-14T22:01:48.126Z,22.00
2019-04-14T22:04:53.623Z,21.53
2019-04-14T22:07:59.204Z,18.77
2019-04-14T22:10:37.949Z,22.00
2019-04-14T22:13:09.361Z,20.23
2019-04-14T22:15:41.224Z,22.13
2019-04-14T22:18:12.438Z,20.60
2019-04-14T22:20:43.536Z,21.80
2019-04-14T22:23:14.663Z,22.47
2019-04-14T22:25:45.730Z,20.40
2019-04-14T22:28:16.834Z,23.50
2019-04-14T22:30:48.232Z,21.07
2019-04-14T22:33:19.218Z,18.03
2019-04-14T22:35:50.392Z,22.50
2019-04-14T22:38:21.836Z,21.07
2019-04-14T22:40:52.886Z,20.60
2019-04-14T22:43:24.029Z,21.33
2019-04-14T22:45:55.138Z,22.93
2019-04-14T22:48:26.246Z,19.50
2019-04-14T22:50:57.547Z,20.87
2019-04-14T22:53:28.595Z,19.80
2019-04-14T22:56:00.035Z,23.30
2019-04-14T22:58:31.473Z,21.83
2019-04-14T23:01:21.283Z,22.30
2019-04-14T23:04:14.024Z,22.03
2019-04-14T23:07:09.859Z,22.40
2019-04-14T23:09:52.545Z,21.40
2019-04-14T23:12:31.929Z,24.63
2019-04-14T23:15:20.863Z,20.33
2019-04-14T23:18:09.811Z,19.60
2019-04-14T23:21:00.191Z,21.23
2019-04-14T23:23:41.100Z,18.77
2019-04-14T23:26:12.131Z,20.17
2019-04-14T23:28:43.556Z,20.77
2019-04-14T23:31:14.610Z,18.30
2019-04-14T23:33:46.043Z,17.20
2019-04-14T23:36:17.158Z,18.73
2019-04-14T23:38:48.303Z,19.40
2019-04-14T23:41:20.162Z,19.20
2019-04-14T23:43:51.305Z,20.27
2019-04-14T23:46:22.758Z,17.40
2019-04-14T23:48:54.243Z,18.77
2019-04-14T23:51:26.345Z,20.47
2019-04-14T23:53:57.850Z,19.63
2019-04-14T23:56:29.340Z,19.77
2019-04-14T23:59:00.860Z,19.30
